createdAt,value
2022-09-28T00:01:24.575Z,35.15
2022-09-28T00:03:57.376Z,35.22
2022-09-28T00:06:26.437Z,33.65
2022-09-28T00:08:54.548Z,34.67
2022-09-28T00:11:23.770Z,36.78
2022-09-28T00:13:53.452Z,34.20
2022-09-28T00:16:24.051Z,36.70
2022-09-28T00:18:52.218Z,32.95
2022-09-28T00:21:24.727Z,34.33
2022-09-28T00:24:12.079Z,38.35
2022-09-28T00:26:42.297Z,36.25
2022-09-28T00:29:17.306Z,34.15
2022-09-28T00:31:45.094Z,36.40
2022-09-28T00:34:13.174Z,37.20
2022-09-28T00:36:43.899Z,33.63
2022-09-28T00:39:12.666Z,36.28
2022-09-28T00:41:40.393Z,37.08
2022-09-28T00:44:26.057Z,35.40
2022-09-28T00:47:06.296Z,38.53
2022-09-28T00:49:55.274Z,34.88
2022-09-28T00:52:35.860Z,39.28
2022-09-28T00:55:07.187Z,35.60
2022-09-28T00:57:35.786Z,35.30
2022-09-28T01:00:05.095Z,35.17
2022-09-28T01:02:32.426Z,38.72
2022-09-28T01:05:01.479Z,35.38
2022-09-28T01:07:29.276Z,33.90
2022-09-28T01:09:56.935Z,34.15
2022-09-28T01:12:24.413Z,34.47
2022-09-28T01:14:52.670Z,35.42
2022-09-28T01:17:30.245Z,33.22
2022-09-28T01:20:07.718Z,34.35
2022-09-28T01:23:09.388Z,35.53
2022-09-28T01:25:41.242Z,34.45
2022-09-28T01:28:15.306Z,35.20
2022-09-28T01:30:51.012Z,35.25
2022-09-28T01:33:30.909Z,33.08
2022-09-28T01:36:13.812Z,34.05
2022-09-28T01:38:47.357Z,32.47
2022-09-28T01:41:17.711Z,32.15
2022-09-28T01:43:54.719Z,30.05
2022-09-28T01:46:27.473Z,28.52
2022-09-28T01:48:58.136Z,29.95
2022-09-28T01:51:30.528Z,25.88
2022-09-28T01:54:06.481Z,26.98
2022-09-28T01:56:43.314Z,27.02
2022-09-28T01:59:20.407Z,25.30
2022-09-28T02:01:53.681Z,21.58
2022-09-28T02:04:26.824Z,25.00
2022-09-28T02:06:58.739Z,19.55
2022-09-28T02:09:36.193Z,22.05
2022-09-28T02:12:13.379Z,18.33
2022-09-28T02:14:43.877Z,14.93
2022-09-28T02:17:11.670Z,14.25
2022-09-28T02:19:39.953Z,15.40
2022-09-28T02:22:28.519Z,10.73
2022-09-28T02:24:59.818Z,12.25
2022-09-28T02:27:45.393Z,13.80
2022-09-28T02:30:13.600Z,13.68
2022-09-28T02:32:44.586Z,11.30
2022-09-28T02:35:17.326Z,11.23
2022-09-28T02:37:46.253Z,9.73
2022-09-28T02:40:19.065Z,11.52
2022-09-28T02:43:02.073Z,12.15
2022-09-28T02:45:51.736Z,11.82
2022-09-28T02:48:44.676Z,10.63
2022-09-28T02:51:38.347Z,10.25
2022-09-28T02:54:38.966Z,9.77
2022-09-28T02:57:27.705Z,11.75
2022-09-28T03:00:05.753Z,14.25
2022-09-28T03:02:54.898Z,14.98
2022-09-28T03:05:44.294Z,21.55
2022-09-28T03:08:38.205Z,21.77
2022-09-28T03:11:14.725Z,25.85
2022-09-28T03:13:42.962Z,23.17
2022-09-28T03:16:19.531Z,22.17
2022-09-28T03:18:49.221Z,23.95
2022-09-28T03:21:16.886Z,20.77
2022-09-28T03:23:44.225Z,24.88
2022-09-28T03:26:12.724Z,26.20
2022-09-28T03:28:40.597Z,23.08
2022-09-28T03:31:11.414Z,24.80
2022-09-28T03:33:38.665Z,21.23
2022-09-28T03:36:08.600Z,22.48
2022-09-28T03:38:36.660Z,23.13
2022-09-28T03:41:04.061Z,20.13
2022-09-28T03:43:35.601Z,18.55
2022-09-28T03:46:04.294Z,22.40
2022-09-28T03:48:36.308Z,20.35
2022-09-28T03:51:06.953Z,20.98
2022-09-28T03:53:34.278Z,24.98
2022-09-28T03:56:04.016Z,23.50
2022-09-28T03:58:32.605Z,25.52
2022-09-28T04:01:18.303Z,26.70
2022-09-28T04:03:47.938Z,27.13
2022-09-28T04:06:15.486Z,29.30
2022-09-28T04:08:43.351Z,29.13
2022-09-28T04:11:11.442Z,31.25
2022-09-28T04:13:39.102Z,30.67
2022-09-28T04:16:14.630Z,28.88
2022-09-28T04:18:51.348Z,29.65
2022-09-28T04:21:37.840Z,29.27
2022-09-28T04:24:11.315Z,27.42
2022-09-28T04:26:38.791Z,26.35
2022-09-28T04:29:19.411Z,31.02
2022-09-28T04:31:55.229Z,31.00
2022-09-28T04:34:41.840Z,30.92
2022-09-28T04:37:11.612Z,33.92
2022-09-28T04:39:42.248Z,33.58
2022-09-28T04:42:13.660Z,35.60
2022-09-28T04:44:43.747Z,34.10
2022-09-28T04:47:10.992Z,34.67
2022-09-28T04:49:56.815Z,31.80
2022-09-28T04:52:31.854Z,33.28
2022-09-28T04:54:59.191Z,31.55
2022-09-28T04:57:27.342Z,29.65
2022-09-28T04:59:55.229Z,30.27
2022-09-28T05:02:22.636Z,29.00
2022-09-28T05:05:13.156Z,29.10
2022-09-28T05:08:09.419Z,30.58
2022-09-28T05:10:40.284Z,34.15
2022-09-28T05:13:09.151Z,33.88
2022-09-28T05:15:38.631Z,34.78
2022-09-28T05:18:07.162Z,33.08
2022-09-28T05:20:46.127Z,32.95
2022-09-28T05:23:15.390Z,32.47
2022-09-28T05:25:45.301Z,32.33
2022-09-28T05:28:28.074Z,32.50
2022-09-28T05:31:15.744Z,31.38
2022-09-28T05:34:12.572Z,32.78
2022-09-28T05:36:42.652Z,31.83
2022-09-28T05:39:09.958Z,34.95
2022-09-28T05:41:37.254Z,32.47
2022-09-28T05:44:05.504Z,30.48
2022-09-28T05:46:32.755Z,33.92
2022-09-28T05:49:01.872Z,31.40
2022-09-28T05:51:29.285Z,31.02
2022-09-28T05:54:00.724Z,31.08
2022-09-28T05:56:31.519Z,30.25
2022-09-28T05:58:58.930Z,32.75
2022-09-28T06:01:29.802Z,31.77
2022-09-28T06:04:02.288Z,32.38
2022-09-28T06:06:30.222Z,30.27
2022-09-28T06:08:57.449Z,29.08
2022-09-28T06:11:44.967Z,31.13
2022-09-28T06:14:23.928Z,31.38
2022-09-28T06:16:53.966Z,30.77
2022-09-28T06:19:21.826Z,27.85
2022-09-28T06:22:07.991Z,35.03
2022-09-28T06:24:43.772Z,33.35
2022-09-28T06:27:11.083Z,30.02
2022-09-28T06:29:38.317Z,32.05
2022-09-28T06:32:07.349Z,29.80
2022-09-28T06:34:36.039Z,33.55
2022-09-28T06:37:04.592Z,29.95
2022-09-28T06:39:32.296Z,27.98
2022-09-28T06:42:03.224Z,27.00
2022-09-28T06:44:50.635Z,22.80
2022-09-28T06:47:38.201Z,21.77
2022-09-28T06:50:17.270Z,18.33
2022-09-28T06:53:06.942Z,49.95
2022-09-28T06:55:57.417Z,95.90
2022-09-28T06:58:27.541Z,104.88
2022-09-28T07:01:00.504Z,76.43
2022-09-28T07:03:33.185Z,44.75
2022-09-28T07:06:21.089Z,41.35
2022-09-28T07:09:24.067Z,37.17
2022-09-28T07:12:13.459Z,21.48
2022-09-28T07:15:04.979Z,15.07
2022-09-28T07:17:39.347Z,27.57
2022-09-28T07:20:18.850Z,23.20
2022-09-28T07:22:48.316Z,22.73
2022-09-28T07:25:20.354Z,4.90
2022-09-28T07:28:02.630Z,5.60
2022-09-28T07:30:57.895Z,7.20
2022-09-28T07:33:45.771Z,5.82
2022-09-28T07:36:20.867Z,4.82
2022-09-28T07:38:48.522Z,5.53
2022-09-28T07:41:22.093Z,5.30
2022-09-28T07:43:52.010Z,7.30
2022-09-28T07:46:21.305Z,3.97
2022-09-28T07:48:56.191Z,4.78
2022-09-28T07:51:35.084Z,7.78
2022-09-28T07:54:21.028Z,4.88
2022-09-28T07:57:07.020Z,4.28
2022-09-28T07:59:53.681Z,5.43
2022-09-28T08:02:41.346Z,2.95
2022-09-28T08:05:10.655Z,4.25
2022-09-28T08:07:38.301Z,9.77
2022-09-28T08:10:09.045Z,6.03
2022-09-28T08:12:59.152Z,2.88
2022-09-28T08:15:40.192Z,4.27
2022-09-28T08:18:16.911Z,3.20
2022-09-28T08:21:03.868Z,3.75
2022-09-28T08:23:31.831Z,1.67
2022-09-28T08:25:59.502Z,3.25
2022-09-28T08:28:27.588Z,2.20
2022-09-28T08:31:01.606Z,3.85
2022-09-28T08:33:31.824Z,2.95
2022-09-28T08:36:34.418Z,2.30
2022-09-28T08:39:02.541Z,3.72
2022-09-28T08:42:02.226Z,1.13
2022-09-28T08:44:52.314Z,1.20
2022-09-28T08:48:45.685Z,2.90
2022-09-28T08:51:45.730Z,2.65
2022-09-28T08:54:41.128Z,1.75
2022-09-28T08:57:33.889Z,2.03
2022-09-28T09:00:05.361Z,1.85
2022-09-28T09:02:39.701Z,4.00
2022-09-28T09:05:24.183Z,2.95
2022-09-28T09:08:14.239Z,1.83
2022-09-28T09:10:50.572Z,4.20
2022-09-28T09:13:46.478Z,3.10
2022-09-28T09:16:42.099Z,4.00
2022-09-28T09:20:05.089Z,3.42
2022-09-28T09:23:04.322Z,1.52
2022-09-28T09:25:42.342Z,4.18
2022-09-28T09:28:50.336Z,2.28
2022-09-28T09:31:43.095Z,2.53
2022-09-28T09:34:43.813Z,3.15
2022-09-28T09:38:22.005Z,3.95
2022-09-28T09:41:27.965Z,2.97
2022-09-28T09:44:13.969Z,4.30
2022-09-28T09:47:13.056Z,6.18
2022-09-28T09:50:11.291Z,4.35
2022-09-28T09:53:02.641Z,2.75
2022-09-28T09:55:36.389Z,3.15
2022-09-28T09:58:34.699Z,5.90
2022-09-28T10:01:35.674Z,3.45
2022-09-28T10:04:32.028Z,3.85
2022-09-28T10:07:06.873Z,5.38
2022-09-28T10:09:41.194Z,4.20
2022-09-28T10:12:24.432Z,3.60
2022-09-28T10:14:53.074Z,2.72
2022-09-28T10:17:26.717Z,2.35
2022-09-28T10:20:37.012Z,3.42
2022-09-28T10:23:27.083Z,2.40
2022-09-28T10:26:00.552Z,3.15
2022-09-28T10:28:51.917Z,4.75
2022-09-28T10:31:46.497Z,3.50
2022-09-28T10:34:27.790Z,3.03
2022-09-28T10:37:05.484Z,3.20
2022-09-28T10:39:55.912Z,4.15
2022-09-28T10:42:31.636Z,4.18
2022-09-28T10:45:23.842Z,6.95
2022-09-28T10:47:51.240Z,4.55
2022-09-28T10:50:28.402Z,1.75
2022-09-28T10:53:20.780Z,6.43
2022-09-28T10:56:22.715Z,2.80
2022-09-28T10:58:59.085Z,2.88
2022-09-28T11:01:41.758Z,2.30
2022-09-28T11:04:21.670Z,1.52
2022-09-28T11:06:50.132Z,3.05
2022-09-28T11:09:32.530Z,2.88
2022-09-28T11:12:14.222Z,1.58
2022-09-28T11:14:46.729Z,2.97
2022-09-28T11:17:25.856Z,5.32
2022-09-28T11:19:54.911Z,1.90
2022-09-28T11:22:26.179Z,4.45
2022-09-28T11:25:22.022Z,2.78
2022-09-28T11:27:52.440Z,4.97
2022-09-28T11:30:25.797Z,5.38
2022-09-28T11:33:22.613Z,4.13
2022-09-28T11:36:19.004Z,2.70
2022-09-28T11:39:01.437Z,6.07
2022-09-28T11:41:54.328Z,5.93
2022-09-28T11:44:41.408Z,3.88
2022-09-28T11:47:40.194Z,4.55
2022-09-28T11:50:41.601Z,4.05
2022-09-28T11:53:36.037Z,3.75
2022-09-28T11:56:18.810Z,4.68
2022-09-28T11:58:50.861Z,6.95
2022-09-28T12:01:35.539Z,5.38
2022-09-28T12:04:38.075Z,5.50
2022-09-28T12:07:19.300Z,4.57
2022-09-28T12:10:00.950Z,6.28
2022-09-28T12:12:37.234Z,5.10
2022-09-28T12:15:19.805Z,7.20
2022-09-28T12:17:52.734Z,6.05
2022-09-28T12:20:27.372Z,8.45
2022-09-28T12:23:11.515Z,4.93
2022-09-28T12:25:49.288Z,3.45
2022-09-28T12:28:42.117Z,6.35
2022-09-28T12:31:21.474Z,4.90
2022-09-28T12:33:51.938Z,7.22
2022-09-28T12:37:03.658Z,6.38
2022-09-28T12:39:58.424Z,3.53
2022-09-28T12:42:39.148Z,6.57
2022-09-28T12:45:06.362Z,5.32
2022-09-28T12:48:01.119Z,7.65
2022-09-28T12:51:00.143Z,6.03
2022-09-28T12:54:04.041Z,7.35
2022-09-28T12:56:41.558Z,6.32
2022-09-28T12:59:20.936Z,9.15
2022-09-28T13:02:00.373Z,9.13
2022-09-28T13:04:45.574Z,6.00
2022-09-28T13:07:29.735Z,9.65
2022-09-28T13:10:16.697Z,8.18
2022-09-28T13:13:12.646Z,5.05
2022-09-28T13:15:43.337Z,9.85
2022-09-28T13:18:27.217Z,7.65
2022-09-28T13:21:17.613Z,7.35
2022-09-28T13:23:47.554Z,10.35
2022-09-28T13:26:37.086Z,5.22
2022-09-28T13:29:14.595Z,8.43
2022-09-28T13:31:49.476Z,4.00
2022-09-28T13:34:22.387Z,11.60
2022-09-28T13:37:07.720Z,6.43
2022-09-28T13:39:51.077Z,7.50
2022-09-28T13:42:35.929Z,6.00
2022-09-28T13:45:21.960Z,9.02
2022-09-28T13:47:56.020Z,12.07
2022-09-28T13:51:04.974Z,6.25
2022-09-28T13:54:04.368Z,5.55
2022-09-28T13:56:48.271Z,7.25
2022-09-28T13:59:27.742Z,8.05
2022-09-28T14:02:17.586Z,9.52
2022-09-28T14:04:57.771Z,4.50
2022-09-28T14:10:20.867Z,5.47
2022-09-28T14:12:53.000Z,5.43
2022-09-28T14:15:29.608Z,6.78
2022-09-28T14:18:20.755Z,6.72
2022-09-28T14:21:05.519Z,7.05
2022-09-28T14:24:11.161Z,9.05
2022-09-28T14:27:00.426Z,4.65
2022-09-28T14:29:34.505Z,5.65
2022-09-28T14:32:07.889Z,4.35
2022-09-28T14:34:46.633Z,6.60
2022-09-28T14:37:46.493Z,3.25
2022-09-28T14:40:48.693Z,4.15
2022-09-28T14:43:33.670Z,9.15
2022-09-28T14:46:10.878Z,3.35
2022-09-28T14:48:54.841Z,6.07
2022-09-28T14:51:25.411Z,5.13
2022-09-28T14:53:54.731Z,9.00
2022-09-28T14:56:22.104Z,6.10
2022-09-28T14:58:56.244Z,7.03
2022-09-28T15:01:25.098Z,7.78
2022-09-28T15:03:56.522Z,6.60
2022-09-28T15:06:24.969Z,6.50
2022-09-28T15:08:52.829Z,4.47
2022-09-28T15:11:23.395Z,5.03
2022-09-28T15:14:04.392Z,3.38
2022-09-28T15:16:32.360Z,4.00
2022-09-28T15:19:25.259Z,4.38
2022-09-28T15:21:52.880Z,3.92
2022-09-28T15:24:34.634Z,5.40
2022-09-28T15:27:15.375Z,6.00
2022-09-28T15:29:57.245Z,4.22
2022-09-28T15:32:26.124Z,5.32
2022-09-28T15:34:54.674Z,8.65
2022-09-28T15:37:26.286Z,8.80
2022-09-28T15:39:55.770Z,6.72
2022-09-28T15:42:23.103Z,7.65
2022-09-28T15:45:13.742Z,4.47
2022-09-28T15:47:44.858Z,5.38
2022-09-28T15:50:33.177Z,8.38
2022-09-28T15:53:04.518Z,2.25
2022-09-28T15:55:39.823Z,7.05
2022-09-28T15:58:22.648Z,4.60
2022-09-28T16:01:12.001Z,8.18
2022-09-28T16:03:39.610Z,5.30
2022-09-28T16:06:09.448Z,4.70
2022-09-28T16:08:38.545Z,5.15
2022-09-28T16:11:35.585Z,6.43
2022-09-28T16:14:08.835Z,6.65
2022-09-28T16:16:47.494Z,6.85
2022-09-28T16:19:37.844Z,3.75
2022-09-28T16:22:18.722Z,5.00
2022-09-28T16:24:55.790Z,6.30
2022-09-28T16:27:28.273Z,4.20
2022-09-28T16:30:21.717Z,5.03
2022-09-28T16:32:53.462Z,5.22
2022-09-28T16:35:27.179Z,5.50
2022-09-28T16:38:00.905Z,5.13
2022-09-28T16:40:29.123Z,5.50
2022-09-28T16:43:00.108Z,6.22
2022-09-28T16:45:28.467Z,2.83
2022-09-28T16:47:57.419Z,6.10
2022-09-28T16:50:25.844Z,4.20
2022-09-28T16:53:19.126Z,3.75
2022-09-28T16:55:48.517Z,6.22
2022-09-28T16:58:15.997Z,4.20
2022-09-28T17:00:43.458Z,8.35
2022-09-28T17:03:18.453Z,5.95
2022-09-28T17:05:47.946Z,7.78
2022-09-28T17:08:19.842Z,10.27
2022-09-28T17:13:45.138Z,4.47
2022-09-28T17:16:14.393Z,3.08
2022-09-28T17:19:33.643Z,7.18
2022-09-28T17:22:00.861Z,6.35
2022-09-28T17:24:28.102Z,5.65
2022-09-28T17:26:55.793Z,3.50
2022-09-28T17:29:23.775Z,6.93
2022-09-28T17:31:51.201Z,5.20
2022-09-28T17:34:19.990Z,6.35
2022-09-28T17:36:47.435Z,5.72
2022-09-28T17:39:17.691Z,6.70
2022-09-28T17:41:48.678Z,7.10
2022-09-28T17:44:21.416Z,8.73
2022-09-28T17:46:51.264Z,6.75
2022-09-28T17:49:20.336Z,4.80
2022-09-28T17:51:53.192Z,7.57
2022-09-28T17:54:22.826Z,8.23
2022-09-28T17:56:50.704Z,5.75
2022-09-28T17:59:26.622Z,6.03
2022-09-28T18:04:51.353Z,11.30
2022-09-28T18:07:20.036Z,7.43
2022-09-28T18:09:48.226Z,10.32
2022-09-28T18:12:33.503Z,5.22
2022-09-28T18:15:01.690Z,5.30
2022-09-28T18:17:29.557Z,8.63
2022-09-28T18:20:01.633Z,6.00
2022-09-28T18:22:29.560Z,10.35
2022-09-28T18:24:56.999Z,6.93
2022-09-28T18:27:27.557Z,6.35
2022-09-28T18:30:02.511Z,8.82
2022-09-28T18:32:32.094Z,7.40
2022-09-28T18:35:03.216Z,7.00
2022-09-28T18:37:40.915Z,7.65
2022-09-28T18:40:16.120Z,10.68
2022-09-28T18:58:58.355Z,6.35
2022-09-28T19:01:47.339Z,6.97
2022-09-28T19:04:25.857Z,5.57
2022-09-28T19:06:54.558Z,5.15
2022-09-28T19:09:24.769Z,9.95
2022-09-28T19:16:29.026Z,7.05
2022-09-28T19:19:15.127Z,6.88
2022-09-28T19:22:40.208Z,9.10
2022-09-28T19:25:12.226Z,6.53
2022-09-28T19:28:39.494Z,5.45
2022-09-28T19:43:27.579Z,7.82
2022-09-28T19:45:56.212Z,6.68
2022-09-28T19:48:30.333Z,6.45
2022-09-28T19:51:05.783Z,9.25
2022-09-28T19:57:11.780Z,6.03
2022-09-28T20:13:45.249Z,5.85
2022-09-28T20:16:17.585Z,8.93
2022-09-28T20:18:52.027Z,8.73
2022-09-28T20:21:25.959Z,6.05
2022-09-28T20:23:56.271Z,5.40
2022-09-28T20:26:29.024Z,6.30
2022-09-28T20:29:02.052Z,7.22
2022-09-28T20:31:32.384Z,7.90
2022-09-28T20:34:02.586Z,9.77
2022-09-28T20:36:35.263Z,5.32
2022-09-28T20:39:06.529Z,7.55
2022-09-28T20:44:37.615Z,7.88
2022-09-28T20:49:55.737Z,7.30
2022-09-28T20:52:27.248Z,6.72
2022-09-28T20:55:05.923Z,5.47
2022-09-28T20:57:40.645Z,4.28
2022-09-28T21:00:23.199Z,12.40
2022-09-28T21:02:59.423Z,8.07
2022-09-28T21:05:36.679Z,7.35
2022-09-28T21:08:08.911Z,4.93
2022-09-28T21:10:37.484Z,9.45
2022-09-28T21:13:06.399Z,4.60
2022-09-28T21:15:42.860Z,7.50
2022-09-28T21:18:14.010Z,8.45
2022-09-28T21:20:51.790Z,9.40
2022-09-28T21:23:24.753Z,5.15
2022-09-28T21:26:09.589Z,7.22
2022-09-28T21:28:39.409Z,6.47
2022-09-28T21:31:11.440Z,5.22
2022-09-28T21:33:39.119Z,10.52
2022-09-28T21:36:10.095Z,7.18
2022-09-28T21:38:42.980Z,7.80
2022-09-28T21:41:11.626Z,6.70
2022-09-28T21:43:41.764Z,6.13
2022-09-28T21:46:11.710Z,3.80
2022-09-28T21:48:39.751Z,6.90
2022-09-28T21:51:13.139Z,8.07
2022-09-28T21:53:43.479Z,5.82
2022-09-28T21:56:13.138Z,5.10
2022-09-28T21:58:41.692Z,11.70
2022-09-28T22:01:15.835Z,6.60
2022-09-28T22:03:47.131Z,9.88
2022-09-28T22:06:18.772Z,7.32
2022-09-28T22:08:47.975Z,5.65
2022-09-28T22:11:17.592Z,11.98
2022-09-28T22:13:47.343Z,5.68
2022-09-28T22:16:18.643Z,5.85
2022-09-28T22:18:48.802Z,8.20
2022-09-28T22:21:22.795Z,7.63
2022-09-28T22:23:53.601Z,10.10
2022-09-28T22:26:27.238Z,4.65
2022-09-28T22:29:04.781Z,7.88
2022-09-28T22:31:39.815Z,9.48
2022-09-28T22:34:10.874Z,8.23
2022-09-28T22:36:42.580Z,7.93
2022-09-28T22:39:16.680Z,10.57
2022-09-28T22:47:45.715Z,10.77
2022-09-28T22:50:17.467Z,3.97
2022-09-28T22:52:51.086Z,5.82
2022-09-28T22:55:25.520Z,9.15
2022-09-28T22:57:58.664Z,5.05
2022-09-28T23:00:29.021Z,6.90
2022-09-28T23:03:01.313Z,7.18
2022-09-28T23:05:31.169Z,7.03
2022-09-28T23:08:00.555Z,5.72
2022-09-28T23:10:30.349Z,5.93
2022-09-28T23:13:01.382Z,5.70
2022-09-28T23:15:38.587Z,6.55
2022-09-28T23:18:11.649Z,8.18
2022-09-28T23:20:41.520Z,11.18
2022-09-28T23:23:11.553Z,11.20
2022-09-28T23:32:01.625Z,7.10
2022-09-28T23:34:32.446Z,8.48
2022-09-28T23:37:05.391Z,9.20
2022-09-28T23:39:36.270Z,6.85
2022-09-28T23:42:09.608Z,7.88
2022-09-28T23:44:39.136Z,10.43
2022-09-28T23:47:11.709Z,6.38
2022-09-28T23:49:39.951Z,5.32
2022-09-28T23:52:08.343Z,9.77
2022-09-28T23:54:36.501Z,7.55
2022-09-28T23:57:05.683Z,8.45
2022-09-28T23:59:33.947Z,9.43
